Time;durP1;ratioP1;P1;durP2;ratioP2;P2;SDS_P1;SDS_P2;PMS_P1;PMS_P2;Temp;Humidity;BMP_temperature;BMP_pressure;BME280_temperature;BME280_humidity;BME280_pressure;Samples;Min_cycle;Max_cycle;Signal;HPM_P1;HPM_P2
2020/12/29 00:01:46;;;;;;;0.30;0.30;;;4.70;99.90;;;;;;5053942;28;20569;-72
2020/12/29 00:04:25;;;;;;;0.30;0.30;;;4.80;99.90;;;;;;5055158;28;20214;-72
2020/12/29 00:06:55;;;;;;;0.30;0.30;;;4.80;99.90;;;;;;5054963;28;20170;-74
2020/12/29 00:09:26;;;;;;;1.95;1.85;;;4.70;99.90;;;;;;5055347;28;20177;-73
2020/12/29 00:11:53;;;;;;;0.30;0.30;;;4.70;99.90;;;;;;5054263;28;20204;-74
2020/12/29 00:14:19;;;;;;;0.30;0.30;;;4.70;99.90;;;;;;5054595;28;20201;-72
2020/12/29 00:16:45;;;;;;;0.30;0.30;;;4.60;99.90;;;;;;5054471;28;20220;-72
2020/12/29 00:19:12;;;;;;;0.30;0.30;;;4.60;99.90;;;;;;5054596;28;20396;-72
2020/12/29 00:21:39;;;;;;;0.30;0.30;;;4.60;99.90;;;;;;5054209;28;20493;-74
2020/12/29 00:24:05;;;;;;;0.30;0.30;;;4.60;99.90;;;;;;5052562;28;20181;-73
2020/12/29 00:26:30;;;;;;;0.30;0.30;;;4.50;99.90;;;;;;5054297;28;20692;-71
2020/12/29 00:28:56;;;;;;;0.30;0.30;;;4.50;99.90;;;;;;5054637;28;20170;-73
2020/12/29 00:31:23;;;;;;;0.30;0.30;;;4.50;99.90;;;;;;5053754;28;20193;-72
2020/12/29 00:33:50;;;;;;;0.30;0.20;;;4.50;99.90;;;;;;5054589;28;20223;-71
2020/12/29 00:36:17;;;;;;;0.30;0.20;;;4.40;99.90;;;;;;5051887;28;20242;-73
2020/12/29 00:38:43;;;;;;;0.30;0.30;;;4.40;99.90;;;;;;5052880;28;20186;-70
2020/12/29 00:41:10;;;;;;;0.30;0.30;;;4.40;99.90;;;;;;5051667;28;20661;-73
2020/12/29 00:43:37;;;;;;;0.30;0.30;;;4.40;99.90;;;;;;5054356;28;20173;-73
2020/12/29 00:46:08;;;;;;;0.30;0.30;;;4.40;99.90;;;;;;5054159;28;20205;-72
2020/12/29 00:48:34;;;;;;;0.30;0.30;;;4.40;99.90;;;;;;5053913;28;20170;-72
2020/12/29 00:51:08;;;;;;;0.30;0.30;;;4.40;99.90;;;;;;5053281;28;20201;-73
2020/12/29 00:53:35;;;;;;;0.30;0.30;;;4.40;99.90;;;;;;5032718;28;20188;-71
2020/12/29 00:56:02;;;;;;;0.30;0.30;;;4.50;99.90;;;;;;5034330;28;20248;-73
2020/12/29 00:58:28;;;;;;;0.30;0.30;;;4.60;99.90;;;;;;5044212;28;20321;-74
2020/12/29 01:00:54;;;;;;;0.30;0.30;;;4.60;99.90;;;;;;5053465;28;20264;-71
2020/12/29 01:03:20;;;;;;;0.30;0.30;;;4.70;99.90;;;;;;5053419;28;20177;-71
2020/12/29 01:05:46;;;;;;;0.30;0.30;;;4.70;99.90;;;;;;5052144;28;20462;-73
2020/12/29 01:08:12;;;;;;;0.30;0.30;;;4.70;99.90;;;;;;5053567;28;20169;-73
2020/12/29 01:10:39;;;;;;;0.30;0.30;;;4.80;99.90;;;;;;5053398;28;20248;-73
2020/12/29 01:13:09;;;;;;;0.30;0.30;;;4.80;99.90;;;;;;5053606;28;20175;-73
2020/12/29 01:15:34;;;;;;;0.30;0.30;;;4.80;99.90;;;;;;5053811;28;20173;-74
2020/12/29 01:18:00;;;;;;;0.30;0.30;;;4.90;99.90;;;;;;5052522;28;20667;-72
2020/12/29 01:20:27;;;;;;;0.30;0.30;;;4.80;99.90;;;;;;5053137;28;20252;-74
2020/12/29 01:22:53;;;;;;;0.30;0.30;;;4.80;99.90;;;;;;5053178;28;20197;-70
2020/12/29 01:25:20;;;;;;;0.30;0.30;;;4.70;99.90;;;;;;5053408;28;20189;-72
2020/12/29 01:27:46;;;;;;;0.30;0.30;;;4.60;99.90;;;;;;5052510;28;20184;-71
2020/12/29 01:30:13;;;;;;;0.30;0.30;;;4.50;99.90;;;;;;5053124;28;20239;-74
2020/12/29 01:32:38;;;;;;;0.30;0.30;;;4.50;99.90;;;;;;5053718;28;20610;-71
2020/12/29 01:35:05;;;;;;;0.30;0.30;;;4.50;99.90;;;;;;5053117;28;20256;-74
2020/12/29 01:37:32;;;;;;;0.30;0.30;;;4.40;99.90;;;;;;5053486;28;20175;-72
2020/12/29 01:39:58;;;;;;;0.30;0.30;;;4.40;99.90;;;;;;5052715;28;20181;-75
2020/12/29 01:42:23;;;;;;;0.30;0.30;;;4.40;99.90;;;;;;5050397;28;20276;-72
2020/12/29 01:44:49;;;;;;;0.30;0.30;;;4.40;99.90;;;;;;5049344;28;20557;-74
2020/12/29 01:47:15;;;;;;;0.30;0.30;;;4.40;99.90;;;;;;5053806;28;20680;-74
2020/12/29 01:49:40;;;;;;;0.40;0.40;;;4.40;99.90;;;;;;5052833;28;20256;-74
2020/12/29 01:52:06;;;;;;;0.30;0.30;;;4.40;99.90;;;;;;5051160;28;20197;-71
2020/12/29 01:54:32;;;;;;;0.33;0.33;;;4.50;99.90;;;;;;5051670;28;20181;-76
2020/12/29 01:56:57;;;;;;;1.00;1.00;;;4.50;99.90;;;;;;5035804;28;20554;-74
2020/12/29 01:59:23;;;;;;;0.40;0.40;;;4.50;99.90;;;;;;5045891;28;20165;-73
2020/12/29 02:01:53;;;;;;;0.30;0.30;;;4.50;99.90;;;;;;5052483;28;20201;-74
2020/12/29 02:04:19;;;;;;;0.30;0.30;;;4.60;99.90;;;;;;5055612;28;20208;-73
2020/12/29 02:06:44;;;;;;;0.30;0.30;;;4.70;99.90;;;;;;5042488;28;20685;-72
2020/12/29 02:09:11;;;;;;;0.30;0.30;;;4.70;99.90;;;;;;5046791;28;20180;-72
2020/12/29 02:11:38;;;;;;;0.38;0.38;;;4.80;99.90;;;;;;5052508;28;20177;-73
2020/12/29 02:14:05;;;;;;;0.30;0.30;;;4.80;99.90;;;;;;5048515;28;20177;-72
2020/12/29 02:16:38;;;;;;;0.30;0.30;;;4.80;99.90;;;;;;5052250;28;20685;-72
2020/12/29 02:19:07;;;;;;;0.30;0.30;;;4.80;99.90;;;;;;5052724;28;20184;-73
2020/12/29 02:21:34;;;;;;;0.30;0.30;;;4.80;99.90;;;;;;5053556;28;20204;-74
2020/12/29 02:24:01;;;;;;;0.32;0.32;;;4.80;99.90;;;;;;5051855;28;20185;-72
2020/12/29 02:26:27;;;;;;;0.30;0.30;;;4.80;99.90;;;;;;5051528;28;20216;-74
2020/12/29 02:29:01;;;;;;;0.30;0.30;;;4.80;99.90;;;;;;5052490;28;20174;-71
2020/12/29 02:31:27;;;;;;;0.30;0.30;;;4.90;99.90;;;;;;5051660;28;20196;-72
2020/12/29 02:33:54;;;;;;;0.30;0.30;;;4.90;99.90;;;;;;5054535;28;20184;-75
2020/12/29 02:36:19;;;;;;;0.40;0.40;;;4.90;99.90;;;;;;5052418;28;20224;-72
2020/12/29 02:38:45;;;;;;;0.33;0.33;;;5.00;99.90;;;;;;5052318;28;20177;-74
2020/12/29 02:41:12;;;;;;;0.37;0.37;;;5.00;99.90;;;;;;5050136;28;20439;-73
2020/12/29 02:43:38;;;;;;;0.30;0.30;;;5.10;99.90;;;;;;5052243;28;20904;-74
2020/12/29 02:46:04;;;;;;;0.30;0.30;;;5.10;99.90;;;;;;5052563;28;20326;-71
2020/12/29 02:48:30;;;;;;;0.30;0.20;;;5.20;99.90;;;;;;5052821;28;20416;-75
2020/12/29 02:50:55;;;;;;;0.30;0.30;;;5.30;99.90;;;;;;5051041;28;20466;-73
2020/12/29 02:53:21;;;;;;;0.30;0.30;;;5.30;99.90;;;;;;5052679;28;20252;-75
2020/12/29 02:55:46;;;;;;;0.40;0.40;;;5.40;99.90;;;;;;5052188;28;20255;-74
2020/12/29 02:58:12;;;;;;;0.37;0.37;;;5.40;99.90;;;;;;5052467;28;20561;-73
2020/12/29 03:00:38;;;;;;;0.30;0.30;;;5.50;99.90;;;;;;5050839;28;20204;-72
2020/12/29 03:03:03;;;;;;;0.30;0.30;;;5.50;99.90;;;;;;5052511;28;20181;-73
2020/12/29 03:05:29;;;;;;;0.30;0.30;;;5.50;99.90;;;;;;5054520;28;20734;-74
2020/12/29 03:07:54;;;;;;;0.37;0.37;;;5.50;99.90;;;;;;5055457;28;20173;-72
2020/12/29 03:10:21;;;;;;;0.30;0.30;;;5.50;99.90;;;;;;5054072;28;20280;-73
2020/12/29 03:12:46;;;;;;;0.40;0.40;;;5.60;99.90;;;;;;5056179;28;20185;-71
2020/12/29 03:15:12;;;;;;;0.30;0.30;;;5.60;99.90;;;;;;5055730;28;20648;-74
2020/12/29 03:17:37;;;;;;;0.30;0.30;;;5.50;99.90;;;;;;5053720;28;20203;-73
2020/12/29 03:20:05;;;;;;;0.30;0.30;;;5.60;99.90;;;;;;5055212;28;21050;-75
2020/12/29 03:22:32;;;;;;;0.30;0.30;;;5.50;99.90;;;;;;5055880;28;20193;-73
2020/12/29 03:24:57;;;;;;;0.30;0.30;;;5.50;99.90;;;;;;5055412;28;20225;-73
2020/12/29 03:27:23;;;;;;;0.40;0.40;;;5.50;99.90;;;;;;5054967;28;20815;-72
2020/12/29 03:29:49;;;;;;;0.30;0.20;;;5.50;99.90;;;;;;5055187;28;20176;-71
2020/12/29 03:32:15;;;;;;;0.30;0.27;;;5.50;99.90;;;;;;5053939;28;20243;-73
2020/12/29 03:34:40;;;;;;;0.40;0.40;;;5.40;99.90;;;;;;5055377;28;20178;-73
2020/12/29 03:37:08;;;;;;;0.30;0.30;;;5.40;99.90;;;;;;5054723;28;20260;-74
2020/12/29 03:39:38;;;;;;;0.30;0.30;;;5.40;99.90;;;;;;5054897;28;20447;-73
2020/12/29 03:42:05;;;;;;;0.30;0.30;;;5.40;99.90;;;;;;5055530;28;20177;-71
2020/12/29 03:44:31;;;;;;;0.30;0.30;;;5.30;99.90;;;;;;5055426;28;20173;-71
2020/12/29 03:46:57;;;;;;;0.38;0.38;;;5.30;99.90;;;;;;5054564;28;20231;-72
2020/12/29 03:49:23;;;;;;;0.30;0.30;;;5.30;99.90;;;;;;5055071;28;20181;-73
2020/12/29 03:51:48;;;;;;;0.30;0.20;;;5.20;99.90;;;;;;5055023;28;20182;-74
2020/12/29 03:54:14;;;;;;;0.30;0.30;;;5.10;99.90;;;;;;5054221;28;20203;-69
2020/12/29 03:56:40;;;;;;;0.40;0.40;;;5.10;99.90;;;;;;5055208;28;20179;-72
2020/12/29 03:59:05;;;;;;;0.30;0.30;;;5.00;99.90;;;;;;5054746;28;20173;-72
2020/12/29 04:01:31;;;;;;;0.30;0.20;;;5.00;99.90;;;;;;5054858;28;20209;-71
2020/12/29 04:03:57;;;;;;;0.30;0.30;;;5.00;99.90;;;;;;5055038;28;20588;-72
2020/12/29 04:06:22;;;;;;;0.30;0.20;;;5.00;99.90;;;;;;5054350;28;20235;-74
2020/12/29 04:08:49;;;;;;;0.30;0.20;;;5.00;99.90;;;;;;5054718;28;20169;-72
2020/12/29 04:11:14;;;;;;;0.30;0.30;;;5.00;99.90;;;;;;5054483;28;20519;-71
2020/12/29 04:13:40;;;;;;;0.30;0.20;;;5.00;99.90;;;;;;5053875;28;20244;-75
2020/12/29 04:16:06;;;;;;;0.30;0.30;;;5.00;99.90;;;;;;5054717;28;20725;-72
2020/12/29 04:18:32;;;;;;;0.30;0.30;;;5.00;99.90;;;;;;5054580;28;20269;-75
2020/12/29 04:20:57;;;;;;;0.30;0.30;;;5.00;99.90;;;;;;5054416;28;20650;-71
2020/12/29 04:23:23;;;;;;;0.30;0.30;;;5.00;99.90;;;;;;5052382;28;20188;-73
2020/12/29 04:25:49;;;;;;;0.30;0.30;;;5.00;99.90;;;;;;5054569;28;20205;-72
2020/12/29 04:28:14;;;;;;;0.30;0.30;;;5.10;99.90;;;;;;5054546;28;20414;-74
2020/12/29 04:30:40;;;;;;;0.40;0.40;;;5.10;99.90;;;;;;5053694;28;20186;-71
2020/12/29 04:33:06;;;;;;;0.37;0.37;;;5.10;99.90;;;;;;5053694;28;20197;-72
2020/12/29 04:35:31;;;;;;;0.40;0.40;;;5.10;99.90;;;;;;5054297;28;20184;-72
2020/12/29 04:37:57;;;;;;;0.30;0.30;;;5.20;99.90;;;;;;5053206;28;20181;-72
2020/12/29 04:40:22;;;;;;;0.30;0.20;;;5.10;99.90;;;;;;5052641;28;20182;-75
2020/12/29 04:42:50;;;;;;;0.30;0.30;;;5.10;99.90;;;;;;5052648;28;20197;-72
2020/12/29 04:45:18;;;;;;;0.30;0.20;;;5.10;99.90;;;;;;5054366;28;20205;-75
2020/12/29 04:47:44;;;;;;;0.30;0.30;;;5.20;99.90;;;;;;5053959;28;20511;-72
2020/12/29 04:50:13;;;;;;;0.30;0.30;;;5.10;99.90;;;;;;5053907;28;20223;-75
2020/12/29 04:52:43;;;;;;;0.30;0.28;;;5.10;99.90;;;;;;5052920;28;20442;-70
2020/12/29 04:55:09;;;;;;;0.30;0.30;;;5.10;99.90;;;;;;5054304;28;20675;-73
2020/12/29 04:57:35;;;;;;;0.30;0.30;;;5.10;99.90;;;;;;5053984;28;20585;-72
2020/12/29 05:00:05;;;;;;;0.30;0.30;;;5.10;99.90;;;;;;5053562;28;20177;-73
2020/12/29 05:02:31;;;;;;;0.30;0.30;;;5.10;99.90;;;;;;5052886;28;20535;-72
2020/12/29 05:04:57;;;;;;;0.30;0.30;;;5.20;99.90;;;;;;5053681;28;20212;-72
2020/12/29 05:07:22;;;;;;;0.40;0.40;;;5.20;99.90;;;;;;5053536;28;20173;-71
2020/12/29 05:09:49;;;;;;;0.30;0.30;;;5.20;99.90;;;;;;5053235;28;20231;-73
2020/12/29 05:12:17;;;;;;;0.30;0.30;;;5.10;99.90;;;;;;5052491;28;20364;-71
2020/12/29 05:14:47;;;;;;;0.30;0.30;;;5.10;99.90;;;;;;5053851;28;20522;-72
2020/12/29 05:17:14;;;;;;;0.38;0.38;;;5.00;99.90;;;;;;5053462;28;20169;-74
2020/12/29 05:19:41;;;;;;;0.30;0.22;;;5.00;99.90;;;;;;5053613;28;20622;-72
2020/12/29 05:22:08;;;;;;;0.30;0.30;;;4.90;99.90;;;;;;5051035;28;20227;-73
2020/12/29 05:24:33;;;;;;;0.30;0.30;;;4.90;99.90;;;;;;5053168;28;20192;-71
2020/12/29 05:27:01;;;;;;;0.30;0.30;;;4.90;99.90;;;;;;5052830;28;20170;-75
2020/12/29 05:29:27;;;;;;;0.30;0.30;;;4.90;99.90;;;;;;5053454;28;20183;-71
2020/12/29 05:31:53;;;;;;;0.30;0.30;;;4.90;99.90;;;;;;5052015;28;20273;-75
2020/12/29 05:34:21;;;;;;;0.30;0.30;;;4.90;99.90;;;;;;5053253;28;20649;-72
2020/12/29 05:36:48;;;;;;;0.30;0.30;;;4.90;99.90;;;;;;5042850;28;20236;-72
2020/12/29 05:39:14;;;;;;;0.30;0.30;;;4.90;99.90;;;;;;5051356;28;20188;-74
2020/12/29 05:41:42;;;;;;;0.30;0.30;;;4.90;99.90;;;;;;5052033;28;20678;-74
2020/12/29 05:44:10;;;;;;;0.30;0.28;;;4.90;99.90;;;;;;5053043;28;20447;-74
2020/12/29 05:46:36;;;;;;;0.30;0.30;;;4.90;99.90;;;;;;5052891;28;20200;-73
2020/12/29 05:49:02;;;;;;;0.30;0.30;;;4.90;99.90;;;;;;5052362;28;20641;-70
2020/12/29 05:51:28;;;;;;;0.30;0.30;;;5.00;99.90;;;;;;5052748;28;20285;-73
2020/12/29 05:53:59;;;;;;;0.30;0.30;;;5.10;99.90;;;;;;5052943;28;20252;-73
2020/12/29 05:56:28;;;;;;;0.30;0.30;;;5.00;99.90;;;;;;5053213;28;20177;-75
2020/12/29 05:58:55;;;;;;;0.30;0.30;;;5.10;99.90;;;;;;5050882;28;20174;-72
2020/12/29 06:01:20;;;;;;;0.30;0.30;;;5.00;99.90;;;;;;5052353;28;20300;-71
2020/12/29 06:03:50;;;;;;;0.30;0.20;;;5.00;99.90;;;;;;5052777;28;20291;-73
2020/12/29 06:06:35;;;;;;;0.30;0.30;;;5.10;99.90;;;;;;5058037;28;20264;-71
2020/12/29 06:09:06;;;;;;;0.30;0.20;;;5.10;99.90;;;;;;5049297;28;20201;-72
2020/12/29 06:11:49;;;;;;;0.30;0.30;;;5.00;99.90;;;;;;5034645;28;20714;-72
2020/12/29 06:14:25;;;;;;;0.30;0.22;;;5.00;99.90;;;;;;5031689;28;20185;-70
2020/12/29 06:16:56;;;;;;;0.30;0.30;;;5.00;99.90;;;;;;5037492;28;20252;-73
2020/12/29 06:19:28;;;;;;;0.30;0.30;;;5.00;99.90;;;;;;5052269;28;20590;-70
2020/12/29 06:22:06;;;;;;;0.30;0.30;;;4.90;99.90;;;;;;5051699;28;20228;-73
2020/12/29 06:24:33;;;;;;;0.30;0.30;;;4.90;99.90;;;;;;5050666;28;20173;-75
2020/12/29 06:27:01;;;;;;;0.32;0.32;;;4.80;99.90;;;;;;5051883;28;20166;-73
2020/12/29 06:29:39;;;;;;;0.30;0.30;;;4.80;99.90;;;;;;5052815;28;20169;-74
2020/12/29 06:32:14;;;;;;;0.30;0.30;;;4.80;99.90;;;;;;5050868;28;20193;-74
2020/12/29 06:34:42;;;;;;;0.30;0.30;;;4.70;99.90;;;;;;5051326;28;20173;-72
2020/12/29 06:37:23;;;;;;;0.30;0.30;;;4.70;99.90;;;;;;5050702;28;20253;-72
2020/12/29 06:39:52;;;;;;;0.30;0.30;;;4.70;99.90;;;;;;5033624;28;20174;-73
2020/12/29 06:42:19;;;;;;;0.30;0.30;;;4.70;99.90;;;;;;5035271;28;20198;-68
2020/12/29 06:44:51;;;;;;;0.30;0.30;;;4.60;99.90;;;;;;5056410;28;20220;-73
2020/12/29 06:47:16;;;;;;;0.30;0.30;;;4.60;99.90;;;;;;5055641;28;20209;-71
2020/12/29 06:49:43;;;;;;;0.30;0.30;;;4.70;99.90;;;;;;5054951;28;20227;-72
2020/12/29 06:52:19;;;;;;;0.30;0.30;;;4.70;99.90;;;;;;5056138;28;20177;-73
2020/12/29 06:54:52;;;;;;;0.30;0.30;;;4.70;99.90;;;;;;5056515;28;20215;-73
2020/12/29 06:57:22;;;;;;;0.40;0.40;;;4.70;99.90;;;;;;5054824;28;20648;-73
2020/12/29 06:59:48;;;;;;;0.40;0.40;;;4.70;99.90;;;;;;5055906;28;20177;-75
2020/12/29 07:02:21;;;;;;;0.30;0.30;;;4.80;99.90;;;;;;5055939;28;20577;-72
2020/12/29 07:04:48;;;;;;;0.30;0.30;;;4.80;99.90;;;;;;5048291;28;20876;-71
2020/12/29 07:07:26;;;;;;;0.30;0.30;;;4.80;99.90;;;;;;5036514;28;20173;-74
2020/12/29 07:09:58;;;;;;;0.30;0.30;;;4.80;99.90;;;;;;5055886;28;20180;-70
2020/12/29 07:12:29;;;;;;;0.30;0.30;;;4.80;99.90;;;;;;5055667;28;20646;-73
2020/12/29 07:14:59;;;;;;;0.30;0.30;;;4.80;99.90;;;;;;5055441;28;20557;-74
2020/12/29 07:17:25;;;;;;;0.30;0.30;;;4.80;99.90;;;;;;5055311;28;20231;-69
2020/12/29 07:19:54;;;;;;;0.30;0.30;;;4.80;99.90;;;;;;5055367;28;20642;-74
2020/12/29 07:22:20;;;;;;;0.30;0.30;;;4.90;99.90;;;;;;5055749;28;20633;-72
2020/12/29 07:24:47;;;;;;;0.30;0.30;;;4.90;99.90;;;;;;5055410;28;20264;-73
2020/12/29 07:27:14;;;;;;;0.30;0.30;;;4.90;99.90;;;;;;5055627;28;20630;-75
2020/12/29 07:29:59;;;;;;;0.30;0.30;;;4.90;99.90;;;;;;5054849;28;20189;-73
2020/12/29 07:32:26;;;;;;;0.30;0.30;;;4.90;99.90;;;;;;5053593;28;20181;-74
2020/12/29 07:34:52;;;;;;;0.30;0.30;;;5.00;99.90;;;;;;5051662;28;20256;-71
2020/12/29 07:37:23;;;;;;;0.30;0.30;;;5.00;99.90;;;;;;5046104;28;20175;-75
2020/12/29 07:39:49;;;;;;;0.30;0.20;;;5.00;99.90;;;;;;5054708;28;20256;-74
2020/12/29 07:42:16;;;;;;;0.30;0.20;;;5.00;99.90;;;;;;5054463;28;20553;-70
2020/12/29 07:44:46;;;;;;;0.30;0.30;;;4.90;99.90;;;;;;5055204;28;20197;-71
2020/12/29 07:47:12;;;;;;;0.30;0.20;;;5.00;99.90;;;;;;5053567;28;20178;-67
2020/12/29 07:49:38;;;;;;;0.30;0.20;;;5.00;99.90;;;;;;5054133;28;20173;-69
2020/12/29 07:52:04;;;;;;;0.30;0.20;;;5.00;99.90;;;;;;5053140;28;20196;-69
2020/12/29 07:54:30;;;;;;;0.30;0.30;;;5.00;99.90;;;;;;5054430;28;20637;-69
2020/12/29 07:56:56;;;;;;;0.40;0.40;;;5.00;99.90;;;;;;5055350;28;20491;-68
2020/12/29 07:59:22;;;;;;;0.30;0.30;;;5.00;99.90;;;;;;5055162;28;20170;-68
2020/12/29 08:01:55;;;;;;;0.40;0.40;;;5.00;99.90;;;;;;5045425;28;20292;-71
2020/12/29 08:04:24;;;;;;;0.30;0.30;;;5.00;99.90;;;;;;5035079;28;20597;-70
2020/12/29 08:06:50;;;;;;;0.38;0.38;;;5.00;99.90;;;;;;5034929;28;20199;-71
2020/12/29 08:09:16;;;;;;;0.30;0.30;;;5.00;99.90;;;;;;5035069;28;20530;-70
2020/12/29 08:11:41;;;;;;;0.30;0.30;;;5.00;99.90;;;;;;5042216;28;20260;-70
2020/12/29 08:14:07;;;;;;;0.30;0.27;;;5.10;99.90;;;;;;5054830;28;20294;-70
2020/12/29 08:16:32;;;;;;;0.30;0.30;;;5.10;99.90;;;;;;5054883;28;20172;-72
2020/12/29 08:19:01;;;;;;;0.30;0.30;;;5.10;99.90;;;;;;5055205;28;20223;-71
2020/12/29 08:21:29;;;;;;;0.30;0.30;;;5.10;99.90;;;;;;5034703;28;20194;-73
2020/12/29 08:23:57;;;;;;;0.35;0.35;;;5.20;99.90;;;;;;5035214;28;20170;-74
2020/12/29 08:26:23;;;;;;;0.30;0.30;;;5.20;99.90;;;;;;5053382;28;20707;-71
2020/12/29 08:28:50;;;;;;;0.30;0.30;;;5.20;99.90;;;;;;5053168;28;20174;-71
2020/12/29 08:31:19;;;;;;;0.30;0.30;;;5.30;99.90;;;;;;5051919;28;20580;-71
2020/12/29 08:33:46;;;;;;;0.30;0.20;;;5.20;99.90;;;;;;5050453;28;20176;-71
2020/12/29 08:36:24;;;;;;;0.30;0.30;;;5.20;99.90;;;;;;5053052;28;20169;-71
2020/12/29 08:39:19;;;;;;;0.30;0.30;;;5.20;99.90;;;;;;5051255;28;20169;-74
2020/12/29 08:41:53;;;;;;;0.30;0.30;;;5.10;99.90;;;;;;5050042;28;20196;-72
2020/12/29 08:44:20;;;;;;;0.30;0.30;;;5.00;99.90;;;;;;5052857;28;20315;-72
2020/12/29 08:46:45;;;;;;;0.30;0.30;;;4.90;99.90;;;;;;5052662;28;20204;-72
2020/12/29 08:49:11;;;;;;;0.33;0.33;;;4.80;99.90;;;;;;5052025;28;20169;-72
2020/12/29 08:51:42;;;;;;;0.40;0.40;;;4.80;99.90;;;;;;5052182;28;20553;-74
2020/12/29 08:54:15;;;;;;;0.40;0.40;;;4.70;99.90;;;;;;5050408;28;20161;-71
2020/12/29 08:56:42;;;;;;;0.40;0.40;;;4.70;99.90;;;;;;5052930;28;20173;-70
2020/12/29 08:59:22;;;;;;;0.30;0.20;;;4.70;99.90;;;;;;5052674;28;20177;-73
2020/12/29 09:01:55;;;;;;;0.30;0.20;;;4.70;99.90;;;;;;5034293;28;20213;-74
2020/12/29 09:04:24;;;;;;;0.30;0.30;;;4.70;99.90;;;;;;5053853;28;20267;-73
2020/12/29 09:07:05;;;;;;;0.30;0.20;;;4.90;99.90;;;;;;5052426;28;20561;-72
2020/12/29 09:09:37;;;;;;;0.30;0.30;;;4.90;99.90;;;;;;5035500;28;20198;-72
2020/12/29 09:12:17;;;;;;;0.30;0.30;;;4.90;99.90;;;;;;5033891;28;20190;-72
2020/12/29 09:15:00;;;;;;;0.40;0.40;;;4.90;99.90;;;;;;5033806;28;20162;-69
2020/12/29 09:17:33;;;;;;;0.30;0.30;;;4.80;99.90;;;;;;5033961;28;20177;-72
2020/12/29 09:20:13;;;;;;;0.30;0.30;;;4.80;99.90;;;;;;5053327;28;20252;-73
2020/12/29 09:22:58;;;;;;;0.30;0.20;;;4.60;99.90;;;;;;5053272;28;20194;-72
2020/12/29 09:25:30;;;;;;;0.32;0.32;;;4.60;99.90;;;;;;5053418;28;20215;-71
2020/12/29 09:28:12;;;;;;;0.30;0.30;;;4.60;99.90;;;;;;5035513;28;20174;-72
2020/12/29 09:30:39;;;;;;;0.30;0.30;;;4.60;99.90;;;;;;5032797;28;20189;-75
2020/12/29 09:33:05;;;;;;;0.38;0.38;;;4.70;99.90;;;;;;5033252;28;20526;-74
2020/12/29 09:35:32;;;;;;;0.30;0.30;;;4.70;99.90;;;;;;5033380;28;20170;-72
2020/12/29 09:37:59;;;;;;;0.35;0.32;;;4.80;99.90;;;;;;5049981;28;20185;-74
2020/12/29 09:40:26;;;;;;;0.30;0.30;;;4.90;99.90;;;;;;5052799;28;20166;-74
2020/12/29 09:42:52;;;;;;;0.30;0.30;;;4.90;99.90;;;;;;5051944;28;20204;-71
2020/12/29 09:45:19;;;;;;;0.30;0.30;;;5.10;99.90;;;;;;5044593;28;20206;-73
2020/12/29 09:47:45;;;;;;;0.30;0.30;;;5.10;99.90;;;;;;5033372;28;20439;-72
2020/12/29 09:50:11;;;;;;;0.30;0.30;;;5.20;99.90;;;;;;5031498;28;20173;-72
2020/12/29 09:52:36;;;;;;;0.30;0.30;;;5.30;99.90;;;;;;5034031;28;20204;-72
2020/12/29 09:55:06;;;;;;;0.30;0.30;;;5.40;99.90;;;;;;5032998;28;20409;-71
2020/12/29 09:57:32;;;;;;;0.30;0.30;;;5.40;99.90;;;;;;5031916;28;20178;-76
2020/12/29 09:59:57;;;;;;;0.30;0.20;;;5.50;99.90;;;;;;5031188;28;20193;-76
2020/12/29 10:02:23;;;;;;;0.30;0.30;;;5.50;99.90;;;;;;5033611;28;20439;-79
2020/12/29 10:04:49;;;;;;;0.30;0.20;;;5.70;99.90;;;;;;5053220;28;20415;-81
2020/12/29 10:07:15;;;;;;;0.30;0.30;;;5.70;99.90;;;;;;5053169;28;20469;-75
2020/12/29 10:09:41;;;;;;;0.30;0.27;;;5.80;99.90;;;;;;5053232;28;20219;-79
2020/12/29 10:12:07;;;;;;;0.30;0.30;;;5.90;99.90;;;;;;5051097;28;20454;-76
2020/12/29 10:14:32;;;;;;;0.30;0.27;;;5.90;99.90;;;;;;5036805;28;20559;-77
2020/12/29 10:16:58;;;;;;;0.30;0.30;;;6.00;99.90;;;;;;5054070;28;20406;-79
2020/12/29 10:19:24;;;;;;;0.40;0.40;;;6.10;99.90;;;;;;5056290;28;20208;-77
2020/12/29 10:21:53;;;;;;;0.30;0.30;;;6.10;99.90;;;;;;5056562;28;20254;-77
2020/12/29 10:24:19;;;;;;;0.30;0.20;;;6.10;99.90;;;;;;5056503;28;20224;-75
2020/12/29 10:26:49;;;;;;;0.30;0.20;;;6.20;99.90;;;;;;5055648;28;20248;-77
2020/12/29 10:29:15;;;;;;;0.30;0.30;;;6.20;99.90;;;;;;5038586;28;20264;-78
2020/12/29 10:31:44;;;;;;;0.35;0.35;;;6.30;99.90;;;;;;5038826;28;20228;-77
2020/12/29 10:34:13;;;;;;;0.30;0.22;;;6.30;99.90;;;;;;5056826;28;20745;-80
2020/12/29 10:36:39;;;;;;;0.30;0.30;;;6.40;99.90;;;;;;5055550;28;20243;-76
2020/12/29 10:39:07;;;;;;;0.30;0.30;;;6.40;99.90;;;;;;5054766;28;20187;-73
2020/12/29 10:41:34;;;;;;;0.30;0.20;;;6.40;99.90;;;;;;5056783;28;20429;-80
2020/12/29 10:44:00;;;;;;;0.30;0.20;;;6.50;99.90;;;;;;5056735;28;20170;-77
2020/12/29 10:46:26;;;;;;;0.32;0.32;;;6.40;99.90;;;;;;5054455;28;20197;-78
2020/12/29 10:48:52;;;;;;;0.30;0.30;;;6.40;99.90;;;;;;5056725;28;20576;-76
2020/12/29 10:51:23;;;;;;;0.30;0.30;;;6.50;99.90;;;;;;5056162;28;20420;-81
2020/12/29 10:53:51;;;;;;;0.30;0.20;;;6.40;99.90;;;;;;5055449;28;20417;-74
2020/12/29 10:56:18;;;;;;;0.30;0.20;;;6.40;99.90;;;;;;5050182;28;20184;-77
2020/12/29 10:58:44;;;;;;;0.30;0.30;;;6.30;99.90;;;;;;5037254;28;20181;-77
2020/12/29 11:01:11;;;;;;;0.30;0.30;;;6.40;99.90;;;;;;5036094;28;20318;-75
2020/12/29 11:03:39;;;;;;;0.30;0.30;;;6.50;99.90;;;;;;5036469;28;20174;-76
2020/12/29 11:06:17;;;;;;;0.30;0.30;;;6.70;99.90;;;;;;5039027;28;20585;-79
2020/12/29 11:08:45;;;;;;;0.40;0.40;;;6.80;99.90;;;;;;5056051;28;20171;-70
2020/12/29 11:11:16;;;;;;;0.30;0.30;;;6.70;99.90;;;;;;5055467;28;20685;-78
2020/12/29 11:13:42;;;;;;;0.30;0.30;;;7.00;99.90;;;;;;5055711;28;20168;-73
2020/12/29 11:16:16;;;;;;;0.30;0.30;;;7.10;99.90;;;;;;5051172;28;20170;-74
2020/12/29 11:18:46;;;;;;;0.30;0.20;;;7.20;99.90;;;;;;5035727;28;20263;-74
2020/12/29 11:21:15;;;;;;;0.30;0.30;;;7.20;99.90;;;;;;5049130;28;20195;-71
2020/12/29 11:23:41;;;;;;;0.30;0.30;;;7.20;99.90;;;;;;5055594;28;20186;-73
2020/12/29 11:26:07;;;;;;;0.30;0.28;;;7.30;99.90;;;;;;5001720;28;20214;-72
2020/12/29 11:28:33;;;;;;;0.30;0.30;;;7.30;99.90;;;;;;5054955;28;20628;-69
2020/12/29 11:30:59;;;;;;;0.30;0.28;;;7.30;99.90;;;;;;5054733;28;20796;-72
2020/12/29 11:33:25;;;;;;;0.30;0.20;;;7.40;99.90;;;;;;5054461;28;20229;-72
2020/12/29 11:35:50;;;;;;;0.30;0.20;;;7.50;99.90;;;;;;5019697;28;20258;-73
2020/12/29 11:38:21;;;;;;;0.30;0.20;;;7.60;99.90;;;;;;5054198;28;20187;-72
2020/12/29 11:40:47;;;;;;;0.30;0.30;;;7.70;99.90;;;;;;5053872;28;20184;-72
2020/12/29 11:43:14;;;;;;;0.30;0.25;;;7.90;99.90;;;;;;5045546;28;20579;-75
2020/12/29 11:45:41;;;;;;;0.30;0.30;;;8.10;99.90;;;;;;5034407;28;20212;-73
2020/12/29 11:48:07;;;;;;;0.30;0.20;;;8.20;99.90;;;;;;5035027;28;20589;-73
2020/12/29 11:50:34;;;;;;;0.30;0.20;;;8.20;99.90;;;;;;5034755;28;20176;-72
2020/12/29 11:52:59;;;;;;;0.30;0.20;;;8.00;99.90;;;;;;5053667;28;20203;-73
2020/12/29 11:55:25;;;;;;;0.30;0.30;;;7.90;99.90;;;;;;5055135;28;20258;-71
2020/12/29 11:57:51;;;;;;;0.30;0.30;;;7.80;99.90;;;;;;5055097;28;20702;-74
2020/12/29 12:00:17;;;;;;;0.30;0.20;;;7.70;99.90;;;;;;5054558;28;20497;-74
2020/12/29 12:02:43;;;;;;;0.30;0.25;;;7.70;99.90;;;;;;5046270;28;20557;-72
2020/12/29 12:05:09;;;;;;;0.30;0.30;;;7.60;99.90;;;;;;5054675;28;20207;-73
2020/12/29 12:07:35;;;;;;;0.30;0.20;;;7.60;99.90;;;;;;5054819;28;20169;-74
2020/12/29 12:10:02;;;;;;;0.30;0.20;;;7.60;99.90;;;;;;5053731;28;20444;-71
2020/12/29 12:12:28;;;;;;;0.30;0.30;;;7.40;99.90;;;;;;5054865;28;20193;-72
2020/12/29 12:14:53;;;;;;;0.30;0.30;;;7.40;99.90;;;;;;5054803;28;20157;-68
2020/12/29 12:17:19;;;;;;;0.30;0.30;;;7.40;99.90;;;;;;5055090;28;20629;-73
2020/12/29 12:19:45;;;;;;;0.40;0.40;;;7.40;99.90;;;;;;5049279;28;20703;-77
2020/12/29 12:22:10;;;;;;;0.40;0.40;;;7.60;99.90;;;;;;5053194;28;20191;-75
2020/12/29 12:24:36;;;;;;;0.30;0.30;;;7.70;99.90;;;;;;5054514;28;20248;-74
2020/12/29 12:27:02;;;;;;;0.30;0.30;;;7.70;99.90;;;;;;5053180;28;20214;-72
2020/12/29 12:29:27;;;;;;;0.30;0.30;;;7.80;99.90;;;;;;5052347;28;20521;-70
2020/12/29 12:31:53;;;;;;;0.30;0.28;;;7.80;99.90;;;;;;5053881;28;20265;-75
2020/12/29 12:34:19;;;;;;;0.30;0.30;;;7.80;99.90;;;;;;5054459;28;20200;-72
2020/12/29 12:36:45;;;;;;;0.30;0.20;;;7.70;99.90;;;;;;5054443;28;20233;-74
2020/12/29 12:39:10;;;;;;;0.30;0.20;;;7.60;99.90;;;;;;5053660;28;20171;-75
2020/12/29 12:41:36;;;;;;;0.30;0.30;;;7.50;99.90;;;;;;5053712;28;20272;-74
2020/12/29 12:44:02;;;;;;;0.30;0.30;;;7.40;99.90;;;;;;5054384;28;20598;-76
2020/12/29 12:46:27;;;;;;;0.30;0.30;;;7.30;99.90;;;;;;5054111;28;20244;-73
2020/12/29 12:48:53;;;;;;;0.30;0.30;;;7.30;99.90;;;;;;5054196;28;20671;-73
2020/12/29 12:51:19;;;;;;;0.30;0.20;;;7.30;99.90;;;;;;5035617;28;20649;-75
2020/12/29 12:53:45;;;;;;;0.30;0.20;;;7.30;99.90;;;;;;5034108;28;20171;-73
2020/12/29 12:56:15;;;;;;;0.30;0.30;;;7.30;99.90;;;;;;5034299;28;20180;-77
2020/12/29 12:58:42;;;;;;;0.30;0.20;;;7.30;99.90;;;;;;5046429;28;20183;-73
2020/12/29 13:01:08;;;;;;;0.30;0.20;;;7.30;99.90;;;;;;5053194;28;20209;-75